Bremen, Minnesota
Current Conditions -  °F | °C
As of 1:54 PM on Monday 22 Dec 2014 (Local Time) from K04W Reporting Station
Light Rain Light Rain  
Wind Chill: 27°   Ceiling: 400
Heat Index: 34°   Visibility: 1.7mi
Dew Point: 34°   Wind: 8mph
Humidity: 100%   Direction: 110°ESE
Pressure: 29.64"   Gusts: NA
Location:  46.2114°N, 92.9743°W
Report Text: K04W 221954Z AUTO 11007KT 1 3/4SM -RA OVC004 01/01 A2964 RMK AO2
Loading
Personal Weather Stations






























Interactive Weather Map New forecast layout! Learn more

10-Day Weather Forecast

Advertisements
Track Severe Weather on mobile